sensor_id;sensor_type;location;lat;lon;timestamp;P1;durP1;ratioP1;P2;durP2;ratioP2
26965;SDS011;14522;52.068;4.414;2022-11-20T00:02:25;4.80;;;3.63;;
26965;SDS011;14522;52.068;4.414;2022-11-20T00:04:51;5.30;;;3.67;;
26965;SDS011;14522;52.068;4.414;2022-11-20T00:07:18;6.00;;;4.40;;
26965;SDS011;14522;52.068;4.414;2022-11-20T00:09:44;5.82;;;3.60;;
26965;SDS011;14522;52.068;4.414;2022-11-20T00:12:10;16.38;;;8.27;;
26965;SDS011;14522;52.068;4.414;2022-11-20T00:14:37;9.98;;;6.72;;
26965;SDS011;14522;52.068;4.414;2022-11-20T00:17:03;9.23;;;6.65;;
26965;SDS011;14522;52.068;4.414;2022-11-20T00:19:29;8.13;;;5.80;;
26965;SDS011;14522;52.068;4.414;2022-11-20T00:21:56;9.73;;;5.93;;
26965;SDS011;14522;52.068;4.414;2022-11-20T00:24:22;7.35;;;5.47;;
26965;SDS011;14522;52.068;4.414;2022-11-20T00:26:48;6.70;;;4.57;;
26965;SDS011;14522;52.068;4.414;2022-11-20T00:29:15;7.53;;;5.80;;
26965;SDS011;14522;52.068;4.414;2022-11-20T00:31:41;7.97;;;5.63;;
26965;SDS011;14522;52.068;4.414;2022-11-20T00:34:09;6.65;;;5.03;;
26965;SDS011;14522;52.068;4.414;2022-11-20T00:36:35;7.07;;;5.18;;
26965;SDS011;14522;52.068;4.414;2022-11-20T00:39:01;9.13;;;5.05;;
26965;SDS011;14522;52.068;4.414;2022-11-20T00:41:28;10.20;;;6.05;;
26965;SDS011;14522;52.068;4.414;2022-11-20T00:43:55;7.57;;;4.45;;
26965;SDS011;14522;52.068;4.414;2022-11-20T00:46:22;8.05;;;5.65;;
26965;SDS011;14522;52.068;4.414;2022-11-20T00:48:49;8.07;;;6.35;;
26965;SDS011;14522;52.068;4.414;2022-11-20T00:51:17;7.95;;;6.13;;
26965;SDS011;14522;52.068;4.414;2022-11-20T00:53:44;8.73;;;6.05;;
26965;SDS011;14522;52.068;4.414;2022-11-20T00:56:11;7.85;;;5.30;;
26965;SDS011;14522;52.068;4.414;2022-11-20T00:58:39;7.82;;;5.50;;
26965;SDS011;14522;52.068;4.414;2022-11-20T01:01:07;8.43;;;5.97;;
26965;SDS011;14522;52.068;4.414;2022-11-20T01:03:35;6.78;;;5.28;;
26965;SDS011;14522;52.068;4.414;2022-11-20T01:06:06;6.32;;;5.00;;
26965;SDS011;14522;52.068;4.414;2022-11-20T01:08:33;4.85;;;4.32;;
26965;SDS011;14522;52.068;4.414;2022-11-20T01:11:10;8.98;;;5.55;;
26965;SDS011;14522;52.068;4.414;2022-11-20T01:13:37;6.47;;;4.53;;
26965;SDS011;14522;52.068;4.414;2022-11-20T01:16:10;8.60;;;5.85;;
26965;SDS011;14522;52.068;4.414;2022-11-20T01:18:38;8.07;;;6.63;;
26965;SDS011;14522;52.068;4.414;2022-11-20T01:21:05;7.25;;;5.75;;
26965;SDS011;14522;52.068;4.414;2022-11-20T01:23:33;9.00;;;6.20;;
26965;SDS011;14522;52.068;4.414;2022-11-20T01:26:00;7.57;;;5.25;;
26965;SDS011;14522;52.068;4.414;2022-11-20T01:28:28;4.30;;;3.25;;
26965;SDS011;14522;52.068;4.414;2022-11-20T01:30:55;8.13;;;5.78;;
26965;SDS011;14522;52.068;4.414;2022-11-20T01:33:22;7.78;;;4.75;;
26965;SDS011;14522;52.068;4.414;2022-11-20T01:35:48;8.65;;;5.57;;
26965;SDS011;14522;52.068;4.414;2022-11-20T01:38:15;8.15;;;6.03;;
26965;SDS011;14522;52.068;4.414;2022-11-20T01:40:41;8.63;;;6.60;;
26965;SDS011;14522;52.068;4.414;2022-11-20T01:43:16;7.30;;;5.38;;
26965;SDS011;14522;52.068;4.414;2022-11-20T01:45:56;9.30;;;5.88;;
26965;SDS011;14522;52.068;4.414;2022-11-20T01:48:25;12.05;;;6.82;;
26965;SDS011;14522;52.068;4.414;2022-11-20T01:50:53;6.70;;;5.50;;
26965;SDS011;14522;52.068;4.414;2022-11-20T01:53:21;5.47;;;3.63;;
26965;SDS011;14522;52.068;4.414;2022-11-20T01:55:51;10.65;;;6.32;;
26965;SDS011;14522;52.068;4.414;2022-11-20T01:58:20;7.15;;;5.43;;
26965;SDS011;14522;52.068;4.414;2022-11-20T02:00:48;6.40;;;5.68;;
26965;SDS011;14522;52.068;4.414;2022-11-20T02:03:15;7.85;;;5.68;;
26965;SDS011;14522;52.068;4.414;2022-11-20T02:08:18;16.17;;;7.30;;
26965;SDS011;14522;52.068;4.414;2022-11-20T02:10:45;6.88;;;5.50;;
26965;SDS011;14522;52.068;4.414;2022-11-20T02:13:11;8.45;;;5.70;;
26965;SDS011;14522;52.068;4.414;2022-11-20T02:15:56;8.15;;;5.80;;
26965;SDS011;14522;52.068;4.414;2022-11-20T02:18:23;7.25;;;5.15;;
26965;SDS011;14522;52.068;4.414;2022-11-20T02:20:50;10.07;;;5.78;;
26965;SDS011;14522;52.068;4.414;2022-11-20T02:25:57;7.75;;;5.90;;
26965;SDS011;14522;52.068;4.414;2022-11-20T02:28:24;9.23;;;5.45;;
26965;SDS011;14522;52.068;4.414;2022-11-20T02:30:50;6.75;;;5.40;;
26965;SDS011;14522;52.068;4.414;2022-11-20T02:33:17;6.85;;;5.57;;
26965;SDS011;14522;52.068;4.414;2022-11-20T02:35:45;7.38;;;5.50;;
26965;SDS011;14522;52.068;4.414;2022-11-20T02:38:12;7.85;;;5.85;;
26965;SDS011;14522;52.068;4.414;2022-11-20T02:40:39;7.68;;;6.15;;
26965;SDS011;14522;52.068;4.414;2022-11-20T02:43:05;9.38;;;5.75;;
26965;SDS011;14522;52.068;4.414;2022-11-20T02:45:32;9.13;;;6.30;;
26965;SDS011;14522;52.068;4.414;2022-11-20T02:47:59;9.07;;;6.15;;
26965;SDS011;14522;52.068;4.414;2022-11-20T02:50:25;9.05;;;6.50;;
26965;SDS011;14522;52.068;4.414;2022-11-20T02:52:52;9.32;;;6.60;;
26965;SDS011;14522;52.068;4.414;2022-11-20T02:55:18;9.30;;;5.55;;
26965;SDS011;14522;52.068;4.414;2022-11-20T02:57:45;8.82;;;5.28;;
26965;SDS011;14522;52.068;4.414;2022-11-20T03:00:11;8.25;;;5.82;;
26965;SDS011;14522;52.068;4.414;2022-11-20T03:02:38;8.77;;;5.80;;
26965;SDS011;14522;52.068;4.414;2022-11-20T03:05:04;7.85;;;5.72;;
26965;SDS011;14522;52.068;4.414;2022-11-20T03:07:30;7.70;;;6.13;;
26965;SDS011;14522;52.068;4.414;2022-11-20T03:09:57;10.32;;;6.85;;
26965;SDS011;14522;52.068;4.414;2022-11-20T03:12:23;8.18;;;4.82;;
26965;SDS011;14522;52.068;4.414;2022-11-20T03:14:50;8.18;;;6.15;;
26965;SDS011;14522;52.068;4.414;2022-11-20T03:17:18;7.00;;;5.47;;
26965;SDS011;14522;52.068;4.414;2022-11-20T03:19:45;8.25;;;5.75;;
26965;SDS011;14522;52.068;4.414;2022-11-20T03:22:11;8.77;;;5.72;;
26965;SDS011;14522;52.068;4.414;2022-11-20T03:24:37;8.13;;;6.18;;
26965;SDS011;14522;52.068;4.414;2022-11-20T03:27:04;7.40;;;5.65;;
26965;SDS011;14522;52.068;4.414;2022-11-20T03:29:30;8.07;;;6.00;;
26965;SDS011;14522;52.068;4.414;2022-11-20T03:31:56;7.75;;;5.43;;
26965;SDS011;14522;52.068;4.414;2022-11-20T03:34:23;8.48;;;6.30;;
26965;SDS011;14522;52.068;4.414;2022-11-20T03:36:49;7.28;;;5.90;;
26965;SDS011;14522;52.068;4.414;2022-11-20T03:39:15;10.18;;;5.38;;
26965;SDS011;14522;52.068;4.414;2022-11-20T03:41:42;8.32;;;5.90;;
26965;SDS011;14522;52.068;4.414;2022-11-20T03:44:10;6.90;;;5.28;;
26965;SDS011;14522;52.068;4.414;2022-11-20T03:46:37;7.13;;;5.60;;
26965;SDS011;14522;52.068;4.414;2022-11-20T03:49:04;7.22;;;5.28;;
26965;SDS011;14522;52.068;4.414;2022-11-20T03:51:31;7.55;;;5.18;;
26965;SDS011;14522;52.068;4.414;2022-11-20T03:53:59;8.02;;;5.82;;
26965;SDS011;14522;52.068;4.414;2022-11-20T03:56:27;8.68;;;6.40;;
26965;SDS011;14522;52.068;4.414;2022-11-20T03:58:54;10.93;;;5.65;;
26965;SDS011;14522;52.068;4.414;2022-11-20T04:01:21;8.82;;;6.13;;
26965;SDS011;14522;52.068;4.414;2022-11-20T04:03:49;6.07;;;4.70;;
26965;SDS011;14522;52.068;4.414;2022-11-20T04:06:16;7.88;;;6.10;;
26965;SDS011;14522;52.068;4.414;2022-11-20T04:08:43;10.82;;;6.18;;
26965;SDS011;14522;52.068;4.414;2022-11-20T04:11:16;6.70;;;5.50;;
26965;SDS011;14522;52.068;4.414;2022-11-20T04:13:45;9.10;;;6.00;;
26965;SDS011;14522;52.068;4.414;2022-11-20T04:16:11;7.15;;;5.43;;
26965;SDS011;14522;52.068;4.414;2022-11-20T04:18:38;8.50;;;5.90;;
26965;SDS011;14522;52.068;4.414;2022-11-20T04:21:04;6.25;;;5.10;;
26965;SDS011;14522;52.068;4.414;2022-11-20T04:23:31;8.20;;;5.45;;
26965;SDS011;14522;52.068;4.414;2022-11-20T04:26:05;9.73;;;6.75;;
26965;SDS011;14522;52.068;4.414;2022-11-20T04:28:31;8.85;;;6.93;;
26965;SDS011;14522;52.068;4.414;2022-11-20T04:31:05;9.02;;;6.38;;
26965;SDS011;14522;52.068;4.414;2022-11-20T04:33:32;8.00;;;6.07;;
26965;SDS011;14522;52.068;4.414;2022-11-20T04:36:03;9.80;;;6.85;;
26965;SDS011;14522;52.068;4.414;2022-11-20T04:38:30;7.32;;;5.88;;
26965;SDS011;14522;52.068;4.414;2022-11-20T04:40:58;8.20;;;6.07;;
26965;SDS011;14522;52.068;4.414;2022-11-20T04:43:24;9.15;;;6.43;;
26965;SDS011;14522;52.068;4.414;2022-11-20T04:45:51;8.05;;;5.70;;
26965;SDS011;14522;52.068;4.414;2022-11-20T04:48:18;8.13;;;6.10;;
26965;SDS011;14522;52.068;4.414;2022-11-20T04:50:44;7.00;;;6.10;;
26965;SDS011;14522;52.068;4.414;2022-11-20T04:53:11;10.02;;;6.78;;
26965;SDS011;14522;52.068;4.414;2022-11-20T04:55:37;8.40;;;6.70;;
26965;SDS011;14522;52.068;4.414;2022-11-20T04:58:04;9.40;;;6.70;;
26965;SDS011;14522;52.068;4.414;2022-11-20T05:00:30;10.23;;;6.78;;
26965;SDS011;14522;52.068;4.414;2022-11-20T05:02:57;8.68;;;6.57;;
26965;SDS011;14522;52.068;4.414;2022-11-20T05:05:23;13.75;;;7.18;;
26965;SDS011;14522;52.068;4.414;2022-11-20T05:07:49;9.77;;;6.20;;
26965;SDS011;14522;52.068;4.414;2022-11-20T05:10:16;10.20;;;6.22;;
26965;SDS011;14522;52.068;4.414;2022-11-20T05:12:42;9.48;;;7.18;;
26965;SDS011;14522;52.068;4.414;2022-11-20T05:15:09;9.40;;;6.50;;
26965;SDS011;14522;52.068;4.414;2022-11-20T05:17:35;9.98;;;6.47;;
26965;SDS011;14522;52.068;4.414;2022-11-20T05:20:02;8.15;;;5.38;;
26965;SDS011;14522;52.068;4.414;2022-11-20T05:22:28;8.48;;;6.18;;
26965;SDS011;14522;52.068;4.414;2022-11-20T05:24:55;7.95;;;6.20;;
26965;SDS011;14522;52.068;4.414;2022-11-20T05:27:21;8.93;;;6.30;;
26965;SDS011;14522;52.068;4.414;2022-11-20T05:29:47;8.75;;;7.30;;
26965;SDS011;14522;52.068;4.414;2022-11-20T05:32:14;9.32;;;6.72;;
26965;SDS011;14522;52.068;4.414;2022-11-20T05:34:40;8.30;;;6.57;;
26965;SDS011;14522;52.068;4.414;2022-11-20T05:37:06;9.68;;;7.07;;
26965;SDS011;14522;52.068;4.414;2022-11-20T05:39:33;7.80;;;6.05;;
26965;SDS011;14522;52.068;4.414;2022-11-20T05:41:59;10.32;;;6.80;;
26965;SDS011;14522;52.068;4.414;2022-11-20T05:44:44;9.68;;;6.72;;
26965;SDS011;14522;52.068;4.414;2022-11-20T05:47:11;9.52;;;6.63;;
26965;SDS011;14522;52.068;4.414;2022-11-20T05:49:37;10.55;;;7.03;;
26965;SDS011;14522;52.068;4.414;2022-11-20T05:52:03;9.77;;;6.18;;
26965;SDS011;14522;52.068;4.414;2022-11-20T05:54:30;11.68;;;7.18;;
26965;SDS011;14522;52.068;4.414;2022-11-20T05:56:56;11.63;;;7.60;;
26965;SDS011;14522;52.068;4.414;2022-11-20T05:59:22;11.48;;;7.88;;
26965;SDS011;14522;52.068;4.414;2022-11-20T06:01:49;11.15;;;7.05;;
26965;SDS011;14522;52.068;4.414;2022-11-20T06:04:15;10.35;;;7.97;;
26965;SDS011;14522;52.068;4.414;2022-11-20T06:06:42;9.32;;;6.88;;
26965;SDS011;14522;52.068;4.414;2022-11-20T06:09:08;8.20;;;6.88;;
26965;SDS011;14522;52.068;4.414;2022-11-20T06:11:34;9.35;;;6.88;;
26965;SDS011;14522;52.068;4.414;2022-11-20T06:14:01;10.85;;;7.07;;
26965;SDS011;14522;52.068;4.414;2022-11-20T06:16:27;9.50;;;7.18;;
26965;SDS011;14522;52.068;4.414;2022-11-20T06:18:54;12.15;;;7.07;;
26965;SDS011;14522;52.068;4.414;2022-11-20T06:21:20;10.45;;;7.18;;
26965;SDS011;14522;52.068;4.414;2022-11-20T06:23:48;10.52;;;7.18;;
26965;SDS011;14522;52.068;4.414;2022-11-20T06:26:18;11.02;;;8.45;;
26965;SDS011;14522;52.068;4.414;2022-11-20T06:28:45;9.07;;;6.38;;
26965;SDS011;14522;52.068;4.414;2022-11-20T06:31:12;9.93;;;6.80;;
26965;SDS011;14522;52.068;4.414;2022-11-20T06:33:40;11.30;;;7.75;;
26965;SDS011;14522;52.068;4.414;2022-11-20T06:36:07;10.18;;;7.82;;
26965;SDS011;14522;52.068;4.414;2022-11-20T06:38:36;9.80;;;7.20;;
26965;SDS011;14522;52.068;4.414;2022-11-20T06:41:03;10.27;;;8.07;;
26965;SDS011;14522;52.068;4.414;2022-11-20T06:43:30;8.15;;;6.55;;
26965;SDS011;14522;52.068;4.414;2022-11-20T06:45:56;9.50;;;7.35;;
26965;SDS011;14522;52.068;4.414;2022-11-20T06:48:23;11.02;;;7.47;;
26965;SDS011;14522;52.068;4.414;2022-11-20T06:50:51;9.60;;;6.35;;
26965;SDS011;14522;52.068;4.414;2022-11-20T06:53:18;10.65;;;7.20;;
26965;SDS011;14522;52.068;4.414;2022-11-20T06:55:45;8.77;;;6.93;;
26965;SDS011;14522;52.068;4.414;2022-11-20T06:58:12;9.98;;;6.55;;
26965;SDS011;14522;52.068;4.414;2022-11-20T07:00:38;10.82;;;7.18;;
26965;SDS011;14522;52.068;4.414;2022-11-20T07:03:05;12.18;;;7.03;;
26965;SDS011;14522;52.068;4.414;2022-11-20T07:05:32;9.75;;;7.30;;
26965;SDS011;14522;52.068;4.414;2022-11-20T07:07:58;12.75;;;8.27;;
26965;SDS011;14522;52.068;4.414;2022-11-20T07:10:25;10.82;;;7.82;;
26965;SDS011;14522;52.068;4.414;2022-11-20T07:12:52;11.65;;;7.60;;
26965;SDS011;14522;52.068;4.414;2022-11-20T07:15:19;9.70;;;6.75;;
26965;SDS011;14522;52.068;4.414;2022-11-20T07:17:46;9.25;;;7.15;;
26965;SDS011;14522;52.068;4.414;2022-11-20T07:20:12;11.32;;;7.30;;
26965;SDS011;14522;52.068;4.414;2022-11-20T07:22:39;11.15;;;8.23;;
26965;SDS011;14522;52.068;4.414;2022-11-20T07:25:06;9.75;;;6.43;;
26965;SDS011;14522;52.068;4.414;2022-11-20T07:27:33;13.23;;;8.50;;
26965;SDS011;14522;52.068;4.414;2022-11-20T07:29:59;13.07;;;7.60;;
26965;SDS011;14522;52.068;4.414;2022-11-20T07:32:25;11.60;;;9.00;;
26965;SDS011;14522;52.068;4.414;2022-11-20T07:34:52;11.07;;;7.95;;
26965;SDS011;14522;52.068;4.414;2022-11-20T07:37:18;11.80;;;7.93;;
26965;SDS011;14522;52.068;4.414;2022-11-20T07:39:45;11.40;;;8.20;;
26965;SDS011;14522;52.068;4.414;2022-11-20T07:42:11;10.88;;;7.53;;
26965;SDS011;14522;52.068;4.414;2022-11-20T07:44:38;9.45;;;7.95;;
26965;SDS011;14522;52.068;4.414;2022-11-20T07:47:05;15.32;;;8.38;;
26965;SDS011;14522;52.068;4.414;2022-11-20T07:49:31;11.07;;;7.97;;
26965;SDS011;14522;52.068;4.414;2022-11-20T07:51:57;12.70;;;9.07;;
26965;SDS011;14522;52.068;4.414;2022-11-20T07:54:30;12.68;;;8.75;;
26965;SDS011;14522;52.068;4.414;2022-11-20T07:56:56;10.85;;;7.60;;
26965;SDS011;14522;52.068;4.414;2022-11-20T07:59:22;10.57;;;8.07;;
26965;SDS011;14522;52.068;4.414;2022-11-20T08:01:49;10.35;;;8.00;;
26965;SDS011;14522;52.068;4.414;2022-11-20T08:04:16;11.40;;;7.70;;
26965;SDS011;14522;52.068;4.414;2022-11-20T08:06:42;11.48;;;8.40;;
26965;SDS011;14522;52.068;4.414;2022-11-20T08:09:08;11.82;;;8.25;;
26965;SDS011;14522;52.068;4.414;2022-11-20T08:11:35;14.27;;;8.63;;
26965;SDS011;14522;52.068;4.414;2022-11-20T08:14:34;12.68;;;8.30;;
26965;SDS011;14522;52.068;4.414;2022-11-20T08:17:00;11.95;;;7.85;;
26965;SDS011;14522;52.068;4.414;2022-11-20T08:19:27;9.15;;;6.80;;
26965;SDS011;14522;52.068;4.414;2022-11-20T08:21:54;10.20;;;7.70;;
26965;SDS011;14522;52.068;4.414;2022-11-20T08:24:21;10.90;;;7.95;;
26965;SDS011;14522;52.068;4.414;2022-11-20T08:26:47;14.30;;;10.20;;
26965;SDS011;14522;52.068;4.414;2022-11-20T08:29:13;13.02;;;8.27;;
26965;SDS011;14522;52.068;4.414;2022-11-20T08:31:40;11.27;;;8.18;;
26965;SDS011;14522;52.068;4.414;2022-11-20T08:34:06;11.82;;;8.60;;
26965;SDS011;14522;52.068;4.414;2022-11-20T08:36:35;16.05;;;10.10;;
26965;SDS011;14522;52.068;4.414;2022-11-20T08:39:01;12.20;;;9.25;;
26965;SDS011;14522;52.068;4.414;2022-11-20T08:41:28;12.43;;;9.10;;
26965;SDS011;14522;52.068;4.414;2022-11-20T08:43:57;10.65;;;7.53;;
26965;SDS011;14522;52.068;4.414;2022-11-20T08:46:24;13.18;;;7.78;;
26965;SDS011;14522;52.068;4.414;2022-11-20T08:48:51;12.45;;;8.77;;
26965;SDS011;14522;52.068;4.414;2022-11-20T08:51:18;11.55;;;8.52;;
26965;SDS011;14522;52.068;4.414;2022-11-20T08:53:44;14.38;;;9.38;;
26965;SDS011;14522;52.068;4.414;2022-11-20T08:56:11;15.02;;;9.48;;
26965;SDS011;14522;52.068;4.414;2022-11-20T08:58:38;13.80;;;8.90;;
26965;SDS011;14522;52.068;4.414;2022-11-20T09:01:24;9.85;;;7.10;;
26965;SDS011;14522;52.068;4.414;2022-11-20T09:03:51;14.52;;;9.95;;
26965;SDS011;14522;52.068;4.414;2022-11-20T09:06:18;11.35;;;8.23;;
26965;SDS011;14522;52.068;4.414;2022-11-20T09:08:44;14.02;;;9.18;;
26965;SDS011;14522;52.068;4.414;2022-11-20T09:11:11;12.25;;;9.15;;
26965;SDS011;14522;52.068;4.414;2022-11-20T09:13:37;17.90;;;10.07;;
26965;SDS011;14522;52.068;4.414;2022-11-20T09:16:05;12.20;;;8.63;;
26965;SDS011;14522;52.068;4.414;2022-11-20T09:18:32;13.40;;;9.20;;
26965;SDS011;14522;52.068;4.414;2022-11-20T09:20:59;15.75;;;9.70;;
26965;SDS011;14522;52.068;4.414;2022-11-20T09:23:26;14.38;;;9.65;;
26965;SDS011;14522;52.068;4.414;2022-11-20T09:25:52;12.52;;;8.90;;
26965;SDS011;14522;52.068;4.414;2022-11-20T09:28:21;14.60;;;9.65;;
26965;SDS011;14522;52.068;4.414;2022-11-20T09:30:47;12.93;;;9.50;;
26965;SDS011;14522;52.068;4.414;2022-11-20T09:33:14;14.88;;;9.80;;
26965;SDS011;14522;52.068;4.414;2022-11-20T09:35:40;15.07;;;10.55;;
26965;SDS011;14522;52.068;4.414;2022-11-20T09:38:07;13.13;;;8.80;;
26965;SDS011;14522;52.068;4.414;2022-11-20T09:40:34;13.45;;;9.35;;
26965;SDS011;14522;52.068;4.414;2022-11-20T09:43:21;15.18;;;9.95;;
26965;SDS011;14522;52.068;4.414;2022-11-20T09:53:51;14.38;;;10.05;;
26965;SDS011;14522;52.068;4.414;2022-11-20T09:56:22;17.02;;;10.90;;
26965;SDS011;14522;52.068;4.414;2022-11-20T09:58:53;17.40;;;10.90;;
26965;SDS011;14522;52.068;4.414;2022-11-20T10:01:25;14.52;;;10.48;;
26965;SDS011;14522;52.068;4.414;2022-11-20T10:03:57;15.55;;;11.10;;
26965;SDS011;14522;52.068;4.414;2022-11-20T10:06:29;15.25;;;10.77;;
26965;SDS011;14522;52.068;4.414;2022-11-20T10:14:06;14.90;;;9.55;;
26965;SDS011;14522;52.068;4.414;2022-11-20T10:29:36;17.92;;;11.35;;
26965;SDS011;14522;52.068;4.414;2022-11-20T10:32:04;17.38;;;12.15;;
26965;SDS011;14522;52.068;4.414;2022-11-20T10:34:35;16.60;;;11.70;;
26965;SDS011;14522;52.068;4.414;2022-11-20T10:42:31;19.00;;;11.77;;
26965;SDS011;14522;52.068;4.414;2022-11-20T10:45:02;15.98;;;10.30;;
26965;SDS011;14522;52.068;4.414;2022-11-20T10:47:32;16.20;;;10.60;;
26965;SDS011;14522;52.068;4.414;2022-11-20T10:50:01;18.48;;;11.90;;
26965;SDS011;14522;52.068;4.414;2022-11-20T11:00:15;16.90;;;11.35;;
26965;SDS011;14522;52.068;4.414;2022-11-20T11:02:45;13.63;;;9.73;;
26965;SDS011;14522;52.068;4.414;2022-11-20T11:07:58;16.87;;;11.27;;
26965;SDS011;14522;52.068;4.414;2022-11-20T11:10:32;15.15;;;10.25;;
26965;SDS011;14522;52.068;4.414;2022-11-20T11:13:03;15.65;;;10.75;;
26965;SDS011;14522;52.068;4.414;2022-11-20T11:15:39;16.35;;;9.88;;
26965;SDS011;14522;52.068;4.414;2022-11-20T11:18:10;16.65;;;11.02;;
26965;SDS011;14522;52.068;4.414;2022-11-20T11:20:37;13.10;;;8.88;;
26965;SDS011;14522;52.068;4.414;2022-11-20T11:23:03;11.00;;;7.65;;
26965;SDS011;14522;52.068;4.414;2022-11-20T11:25:35;14.90;;;10.40;;
26965;SDS011;14522;52.068;4.414;2022-11-20T11:30:43;15.55;;;10.20;;
26965;SDS011;14522;52.068;4.414;2022-11-20T11:33:11;17.05;;;11.55;;
26965;SDS011;14522;52.068;4.414;2022-11-20T11:35:43;15.13;;;11.45;;
26965;SDS011;14522;52.068;4.414;2022-11-20T11:38:17;17.80;;;11.57;;
26965;SDS011;14522;52.068;4.414;2022-11-20T11:40:45;17.55;;;11.55;;
26965;SDS011;14522;52.068;4.414;2022-11-20T11:43:17;20.52;;;12.93;;
26965;SDS011;14522;52.068;4.414;2022-11-20T11:46:06;18.80;;;12.18;;
26965;SDS011;14522;52.068;4.414;2022-11-20T11:48:35;17.38;;;11.63;;
26965;SDS011;14522;52.068;4.414;2022-11-20T11:51:01;21.15;;;13.80;;
26965;SDS011;14522;52.068;4.414;2022-11-20T11:53:27;19.08;;;12.05;;
26965;SDS011;14522;52.068;4.414;2022-11-20T11:56:13;21.42;;;14.48;;
26965;SDS011;14522;52.068;4.414;2022-11-20T11:58:46;20.65;;;13.85;;
26965;SDS011;14522;52.068;4.414;2022-11-20T12:03:44;17.85;;;12.57;;
26965;SDS011;14522;52.068;4.414;2022-11-20T12:06:16;20.60;;;13.73;;
26965;SDS011;14522;52.068;4.414;2022-11-20T12:08:53;22.02;;;14.30;;
26965;SDS011;14522;52.068;4.414;2022-11-20T12:11:39;20.77;;;13.25;;
26965;SDS011;14522;52.068;4.414;2022-11-20T12:14:20;16.15;;;10.57;;
26965;SDS011;14522;52.068;4.414;2022-11-20T12:16:50;21.13;;;13.32;;
26965;SDS011;14522;52.068;4.414;2022-11-20T12:19:18;19.52;;;13.65;;
26965;SDS011;14522;52.068;4.414;2022-11-20T12:27:01;21.85;;;14.32;;
26965;SDS011;14522;52.068;4.414;2022-11-20T12:37:33;22.83;;;15.32;;
26965;SDS011;14522;52.068;4.414;2022-11-20T12:40:44;16.98;;;10.93;;
26965;SDS011;14522;52.068;4.414;2022-11-20T12:43:00;21.55;;;13.90;;
26965;SDS011;14522;52.068;4.414;2022-11-20T12:53:54;20.38;;;11.88;;
26965;SDS011;14522;52.068;4.414;2022-11-20T12:56:37;25.65;;;15.32;;
26965;SDS011;14522;52.068;4.414;2022-11-20T13:01:40;25.73;;;15.15;;
26965;SDS011;14522;52.068;4.414;2022-11-20T13:06:43;27.05;;;15.55;;
26965;SDS011;14522;52.068;4.414;2022-11-20T13:09:14;25.33;;;15.88;;
26965;SDS011;14522;52.068;4.414;2022-11-20T13:11:47;26.35;;;16.33;;
26965;SDS011;14522;52.068;4.414;2022-11-20T13:17:04;19.38;;;11.43;;
26965;SDS011;14522;52.068;4.414;2022-11-20T13:19:32;25.52;;;15.77;;
26965;SDS011;14522;52.068;4.414;2022-11-20T13:21:59;22.38;;;14.15;;
26965;SDS011;14522;52.068;4.414;2022-11-20T13:24:27;22.98;;;13.73;;
26965;SDS011;14522;52.068;4.414;2022-11-20T13:29:26;23.17;;;13.52;;
26965;SDS011;14522;52.068;4.414;2022-11-20T13:32:01;24.70;;;13.43;;
26965;SDS011;14522;52.068;4.414;2022-11-20T13:34:33;22.50;;;14.80;;
26965;SDS011;14522;52.068;4.414;2022-11-20T13:37:00;26.52;;;15.90;;
26965;SDS011;14522;52.068;4.414;2022-11-20T13:39:27;23.25;;;13.70;;
26965;SDS011;14522;52.068;4.414;2022-11-20T13:41:58;23.42;;;13.38;;
26965;SDS011;14522;52.068;4.414;2022-11-20T13:47:20;26.20;;;16.10;;
26965;SDS011;14522;52.068;4.414;2022-11-20T13:49:47;30.35;;;17.65;;
26965;SDS011;14522;52.068;4.414;2022-11-20T13:55:24;29.25;;;16.60;;
26965;SDS011;14522;52.068;4.414;2022-11-20T14:00:16;30.00;;;16.50;;
26965;SDS011;14522;52.068;4.414;2022-11-20T14:02:43;22.75;;;14.15;;
26965;SDS011;14522;52.068;4.414;2022-11-20T14:05:28;32.83;;;17.38;;
26965;SDS011;14522;52.068;4.414;2022-11-20T14:07:57;22.83;;;14.07;;
26965;SDS011;14522;52.068;4.414;2022-11-20T14:10:25;25.38;;;15.35;;
26965;SDS011;14522;52.068;4.414;2022-11-20T14:12:57;38.80;;;17.73;;
26965;SDS011;14522;52.068;4.414;2022-11-20T14:15:28;26.85;;;16.13;;
26965;SDS011;14522;52.068;4.414;2022-11-20T14:17:55;25.58;;;14.75;;
26965;SDS011;14522;52.068;4.414;2022-11-20T14:20:23;27.27;;;16.77;;
26965;SDS011;14522;52.068;4.414;2022-11-20T14:22:51;26.38;;;16.40;;
26965;SDS011;14522;52.068;4.414;2022-11-20T14:25:20;24.20;;;12.25;;
26965;SDS011;14522;52.068;4.414;2022-11-20T14:27:53;29.60;;;16.92;;
26965;SDS011;14522;52.068;4.414;2022-11-20T14:30:21;28.95;;;17.30;;
26965;SDS011;14522;52.068;4.414;2022-11-20T14:32:48;30.00;;;17.65;;
26965;SDS011;14522;52.068;4.414;2022-11-20T14:35:21;30.83;;;17.40;;
26965;SDS011;14522;52.068;4.414;2022-11-20T14:37:49;30.90;;;18.63;;
26965;SDS011;14522;52.068;4.414;2022-11-20T14:40:26;27.52;;;16.90;;
26965;SDS011;14522;52.068;4.414;2022-11-20T14:42:53;31.30;;;18.08;;
26965;SDS011;14522;52.068;4.414;2022-11-20T14:45:19;23.30;;;11.88;;
26965;SDS011;14522;52.068;4.414;2022-11-20T14:47:46;21.58;;;12.95;;
26965;SDS011;14522;52.068;4.414;2022-11-20T14:50:47;26.45;;;15.38;;
26965;SDS011;14522;52.068;4.414;2022-11-20T14:53:06;29.58;;;15.63;;
26965;SDS011;14522;52.068;4.414;2022-11-20T14:55:34;28.73;;;15.65;;
26965;SDS011;14522;52.068;4.414;2022-11-20T14:58:03;25.17;;;14.90;;
26965;SDS011;14522;52.068;4.414;2022-11-20T15:00:30;27.70;;;15.10;;
26965;SDS011;14522;52.068;4.414;2022-11-20T15:02:57;24.20;;;14.35;;
26965;SDS011;14522;52.068;4.414;2022-11-20T15:05:25;26.15;;;15.98;;
26965;SDS011;14522;52.068;4.414;2022-11-20T15:08:04;25.52;;;15.20;;
26965;SDS011;14522;52.068;4.414;2022-11-20T15:10:31;23.75;;;13.60;;
26965;SDS011;14522;52.068;4.414;2022-11-20T15:13:02;25.77;;;15.25;;
26965;SDS011;14522;52.068;4.414;2022-11-20T15:15:39;28.45;;;15.90;;
26965;SDS011;14522;52.068;4.414;2022-11-20T15:18:11;26.60;;;15.30;;
26965;SDS011;14522;52.068;4.414;2022-11-20T15:20:39;29.38;;;16.40;;
26965;SDS011;14522;52.068;4.414;2022-11-20T15:23:17;26.58;;;16.55;;
26965;SDS011;14522;52.068;4.414;2022-11-20T15:25:46;30.15;;;15.20;;
26965;SDS011;14522;52.068;4.414;2022-11-20T15:28:16;26.30;;;15.13;;
26965;SDS011;14522;52.068;4.414;2022-11-20T15:30:43;25.55;;;15.43;;
26965;SDS011;14522;52.068;4.414;2022-11-20T15:33:10;31.63;;;16.45;;
26965;SDS011;14522;52.068;4.414;2022-11-20T15:35:37;23.27;;;14.30;;
26965;SDS011;14522;52.068;4.414;2022-11-20T15:38:03;19.25;;;11.75;;
26965;SDS011;14522;52.068;4.414;2022-11-20T15:40:29;26.00;;;15.50;;
26965;SDS011;14522;52.068;4.414;2022-11-20T15:42:56;22.85;;;13.98;;
26965;SDS011;14522;52.068;4.414;2022-11-20T15:45:45;23.73;;;13.70;;
26965;SDS011;14522;52.068;4.414;2022-11-20T15:48:23;19.77;;;12.80;;
26965;SDS011;14522;52.068;4.414;2022-11-20T15:50:56;20.67;;;12.93;;
26965;SDS011;14522;52.068;4.414;2022-11-20T15:53:24;19.95;;;12.90;;
26965;SDS011;14522;52.068;4.414;2022-11-20T15:55:50;21.33;;;12.45;;
26965;SDS011;14522;52.068;4.414;2022-11-20T15:58:19;18.15;;;11.15;;
26965;SDS011;14522;52.068;4.414;2022-11-20T16:00:45;19.17;;;12.90;;
26965;SDS011;14522;52.068;4.414;2022-11-20T16:03:12;18.95;;;12.88;;
26965;SDS011;14522;52.068;4.414;2022-11-20T16:05:39;18.17;;;11.68;;
26965;SDS011;14522;52.068;4.414;2022-11-20T16:08:05;20.77;;;12.57;;
26965;SDS011;14522;52.068;4.414;2022-11-20T16:10:36;17.90;;;11.75;;
26965;SDS011;14522;52.068;4.414;2022-11-20T16:13:03;17.35;;;11.60;;
26965;SDS011;14522;52.068;4.414;2022-11-20T16:15:52;16.90;;;11.70;;
26965;SDS011;14522;52.068;4.414;2022-11-20T16:18:21;18.73;;;11.27;;